To NAV CANADA Home Page Login to a new session Search on AWWS site Feedback and Comments Disclaimer Vers la page française équivalente Tips FAQ What's new on the site To the Forecasts and Observations / NOTAM section To "File a Flight Plan" website Publications and other links Update of the User's profile FIC Telephone Numbers My Weather Data Folder Route Weather Data Regional Weather Data Local Weather Data To the Forecasts and Observations / NOTAM section
Request Generated 04/20/2014 at 08:37:38 UTC . Weather information available at that time is displayed.

METAR/TAF

LLOYDMINSTER/AB    (show WxCam)

METAR CYLL 200800Z AUTO 14011KT 9SM BKN055 OVC071 02/M01 A2978 RMK
SLP110=
SPECI CYLL 200753Z AUTO 14011KT 9SM BKN055 OVC070 02/M01 A2978 RMK
SLP110=
SPECI CYLL 200736Z AUTO 15010KT 9SM -RA BKN055 BKN066 OVC084 02/M01
A2978 RMK SLP111=
METAR CYLL 200700Z AUTO 12010KT 9SM BKN080 02/M01 A2978 RMK SLP108=
METAR CYLL 200600Z AUTO 12012G17KT 9SM SCT080 02/M01 A2977 RMK
SLP108=

TAF CYLL 200538Z 2006/2018 13015KT P6SM SCT060 OVC080
FM200900 14010KT P6SM OVC050 TEMPO 2009/2013 P6SM -SHRA SCT020
OVC040
FM201300 10008KT P6SM SCT008 OVC020 TEMPO 2013/2017 2SM -SHRASN
BR OVC008
FM201700 02008KT P6SM -SHRA BKN015 OVC040
RMK FCST BASED ON AUTO OBS. NXT FCST BY 201200Z=
Your time UTC time
Weather data provided by Environment Canada and NAV CANADA